Andrews, IN (46702)

12:31 AM EDT on September 02, 2014 (GMT -0400)
North Huntington County | Change Station
CLOSE
Current Station
Personal Weather Station
Location: Huntington, IN
Elevation: 817 ft
Nearby Weather Stations

Elev 817 ft 40.93 °N, 85.55 °W | Updated 1 minute ago

Clear
Clear
67.7 °F
Feels Like 67.7 °F
N
0.0
Wind Variable Wind from South
Gusts 0.0 mph

Today
High -- | Low -- °F
--% Chance of Precip.
Yesterday
High -- | Low -- °F
Precip. -- in
7:10 AM 8:13 PM
Waxing Crescent, 47% visible
Pressure 29.89 in
Visibility 10.0 miles
Clouds Scattered Clouds 25000 ft
Dew Point 67 °F
Humidity 98%
Rainfall 0.00 in
Snow Depth Not available.
UV 0 out of 12
Pollen 10.20 out of 12
Air Quality Not available.
Flu Activity Not available.
METAR KFWA 020354Z 23006KT 10SM SCT250 21/18 A2991 RMK AO2 SLP122 T02110183

More Conditions Fewer Conditions

Pressure 29.89 in
Visibility 10.0 miles
Clouds Scattered Clouds 25000 ft
Dew Point 67 °F
Humidity 98%
Rainfall 0.00 in
Snow Depth Not available.
UV 0 out of 12
Pollen 10.20 out of 12
Air Quality Not available.
Flu Activity Not available.
METAR KFWA 020354Z 23006KT 10SM SCT250 21/18 A2991 RMK AO2 SLP122 T02110183

More Conditions Fewer Conditions

10-Day Weather Forecast

Almanac

Astronomy

Sep. 02, 2014 Rise Set
Actual Time 7:10 AM EDT 8:13 PM EDT
Civil Twilight 6:42 AM EDT 8:41 PM EDT
Nautical Twilight 6:08 AM EDT 9:14 PM EDT
Astronomical Twilight 5:33 AM EDT 9:49 PM EDT
Moon 2:56 PM EDT 12:12 AM EDT
Length of Visible Light 13h 59m
Length of Day
13h 02m
Tomorrow will be 2m 37s shorter.
Waxing Crescent, 47% of the Moon is Illuminated
Today
Waxing Crescent
Sep 2
First Quarter
Sep 8
Full
Sep 15
Last Quarter
Sep 24
New

Yesterday's Extremes

State Highs State Lows

Community

WunderPhotos

Upload Photos

1,749,566 photos uploaded!

WunderBlogs® & News

Nearby

Snow Depth

Station Depth Elevation
No new snow has been reported.

Earthquake Activity

City Distance Mag. Time & Date
No recent earthquake activity has been reported nearby.
Minimum magnitude displayed is 2.5.

Coastal Water Temperatures

Place Temperature
No Stations Reporting

Nearby Weather Stations